Terminal Aerodrome Forecast
Issued by NWS

Home | Current Version | Previous Version | Text Only | Print | Product List | Glossary On
Versions: 1 2 3 4 5 6 7 8 9 10 11 12 13 14 15 16 17 18 19 20 21
000
FTUS43 KMQT 191600 AAC
TAFSAW
TAF AMD
KSAW 191613Z 1916/2012 19017G26KT P6SM SCT030
      TEMPO 1916/1917 BKN010
     FM192000 20021G30KT P6SM BKN100
     FM200000 20014G21KT P6SM -SHRA BKN050
     FM200300 20012G18KT P6SM -SHRA BKN025
     FM200600 20011KT P6SM OVC008=

USA.gov is the U.S. government's official web portal to all federal, state and local government web resources and services.